Rose Hill, Illinois
Current Conditions -  °F | °C
As of 1:15 AM on Saturday 29 Nov 2014 (Local Time) from K1H2 Reporting Station
Clear Clear  
Wind Chill: 31°   Ceiling: Unl
Heat Index: 36°   Visibility: 10mi
Dew Point: 26°   Wind: 6mph
Humidity: 69%   Direction: 150°SSE
Pressure: 29.92"   Gusts: NA
Location:  39.1196°N, 88.1333°W
Report Text: K1H2 290715Z AUTO 15005KT 10SM CLR 02/M03 A2992 RMK AO2 T00201032
Loading
Personal Weather Stations






























Interactive Weather Map New forecast layout! Learn more

10-Day Weather Forecast

Advertisements
Track Severe Weather on mobile